createdAt,value
2018-04-23T00:01:00.746Z,18.90
2018-04-23T00:03:28.261Z,18.90
2018-04-23T00:05:56.549Z,18.90
2018-04-23T00:08:24.805Z,18.80
2018-04-23T00:10:52.325Z,18.80
2018-04-23T00:13:19.834Z,18.80
2018-04-23T00:15:48.157Z,18.70
2018-04-23T00:18:15.672Z,18.70
2018-04-23T00:20:44.006Z,18.60
2018-04-23T00:23:11.541Z,18.60
2018-04-23T00:25:39.075Z,18.50
2018-04-23T00:28:07.339Z,18.50
2018-04-23T00:30:35.640Z,18.40
2018-04-23T00:33:03.136Z,18.40
2018-04-23T00:35:30.678Z,18.40
2018-04-23T00:37:58.198Z,18.30
2018-04-23T00:40:26.456Z,18.30
2018-04-23T00:42:54.742Z,18.30
2018-04-23T00:45:23.019Z,18.20
2018-04-23T00:47:51.293Z,18.20
2018-04-23T00:50:18.836Z,18.20
2018-04-23T00:52:46.368Z,18.20
2018-04-23T00:55:13.893Z,18.20
2018-04-23T00:57:41.392Z,18.10
2018-04-23T01:00:08.884Z,18.10
2018-04-23T01:02:37.192Z,18.00
2018-04-23T01:05:04.717Z,18.00
2018-04-23T01:07:32.264Z,18.00
2018-04-23T01:09:59.767Z,17.90
2018-04-23T01:12:27.284Z,17.90
2018-04-23T01:14:54.792Z,17.90
2018-04-23T01:17:22.304Z,17.90
2018-04-23T01:19:49.859Z,17.90
2018-04-23T01:22:17.379Z,17.80
2018-04-23T01:24:44.898Z,17.80
2018-04-23T01:27:13.173Z,17.80
2018-04-23T01:29:41.463Z,17.80
2018-04-23T01:32:09.765Z,17.70
2018-04-23T01:34:38.045Z,17.70
2018-04-23T01:37:05.564Z,17.70
2018-04-23T01:39:33.871Z,17.70
2018-04-23T01:42:01.371Z,17.70
2018-04-23T01:44:28.901Z,17.70
2018-04-23T01:46:56.424Z,17.60
2018-04-23T01:49:24.750Z,17.60
2018-04-23T01:51:52.268Z,17.50
2018-04-23T01:54:20.523Z,17.50
2018-04-23T01:56:48.830Z,17.50
2018-04-23T01:59:16.359Z,17.50
2018-04-23T02:01:43.857Z,17.50
2018-04-23T02:04:11.354Z,17.50
2018-04-23T02:06:38.866Z,17.50
2018-04-23T02:09:06.350Z,17.50
2018-04-23T02:11:34.610Z,17.50
2018-04-23T02:14:02.125Z,17.50
2018-04-23T02:16:30.393Z,17.50
2018-04-23T02:18:57.915Z,17.50
2018-04-23T02:21:25.406Z,17.50
2018-04-23T02:23:52.934Z,17.50
2018-04-23T02:26:20.439Z,17.50
2018-04-23T02:28:48.721Z,17.50
2018-04-23T02:31:17.020Z,17.40
2018-04-23T02:33:44.527Z,17.40
2018-04-23T02:36:12.069Z,17.40
2018-04-23T02:38:39.583Z,17.40
2018-04-23T02:41:07.863Z,17.40
2018-04-23T02:43:36.122Z,17.40
2018-04-23T02:46:04.435Z,17.30
2018-04-23T02:48:31.925Z,17.30
2018-04-23T02:50:59.430Z,17.30
2018-04-23T02:53:26.954Z,17.30
2018-04-23T02:55:54.542Z,17.40
2018-04-23T02:58:22.824Z,17.40
2018-04-23T03:00:51.114Z,17.40
2018-04-23T03:03:18.673Z,17.40
2018-04-23T03:05:46.175Z,17.50
2018-04-23T03:08:13.689Z,17.60
2018-04-23T03:10:41.188Z,17.60
2018-04-23T03:13:08.742Z,17.60
2018-04-23T03:15:36.232Z,17.60
2018-04-23T03:18:04.561Z,17.60
2018-04-23T03:20:32.105Z,17.50
2018-04-23T03:22:59.591Z,17.50
2018-04-23T03:25:27.134Z,17.60
2018-04-23T03:27:54.648Z,17.60
2018-04-23T03:30:22.213Z,17.50
2018-04-23T03:32:50.527Z,17.50
2018-04-23T03:35:18.058Z,17.50
2018-04-23T03:37:46.337Z,17.60
2018-04-23T03:40:14.624Z,17.60
2018-04-23T03:42:42.165Z,17.50
2018-04-23T03:45:10.437Z,17.50
2018-04-23T03:47:38.753Z,17.60
2018-04-23T03:50:07.037Z,17.50
2018-04-23T03:52:34.577Z,17.60
2018-04-23T03:55:02.162Z,17.60
2018-04-23T03:57:29.673Z,17.70
2018-04-23T03:59:57.961Z,17.80
2018-04-23T04:02:26.244Z,17.70
2018-04-23T04:04:53.760Z,17.70
2018-04-23T04:07:21.326Z,17.70
2018-04-23T04:09:48.882Z,17.70
2018-04-23T04:12:28.326Z,17.70
2018-04-23T04:15:07.792Z,17.70
2018-04-23T04:20:52.848Z,17.60
2018-04-23T04:23:20.392Z,17.60
2018-04-23T04:25:47.878Z,17.60
2018-04-23T04:28:16.198Z,17.70
2018-04-23T04:30:43.719Z,17.60
2018-04-23T04:33:11.998Z,17.70
2018-04-23T04:35:40.385Z,17.70
2018-04-23T04:38:07.833Z,17.70
2018-04-23T04:40:36.127Z,17.80
2018-04-23T04:43:03.656Z,17.80
2018-04-23T04:45:31.937Z,17.90
2018-04-23T04:47:59.472Z,17.90
2018-04-23T04:50:27.001Z,17.90
2018-04-23T04:52:54.533Z,17.90
2018-04-23T04:55:22.788Z,17.90
2018-04-23T04:57:51.110Z,18.00
2018-04-23T05:00:18.636Z,18.00
2018-04-23T05:02:46.937Z,18.10
2018-04-23T05:05:14.487Z,18.10
2018-04-23T05:07:42.001Z,18.10
2018-04-23T05:10:09.491Z,18.10
2018-04-23T05:12:37.785Z,18.20
2018-04-23T05:15:05.358Z,18.20
2018-04-23T05:17:32.878Z,18.30
2018-04-23T05:20:01.159Z,18.30
2018-04-23T05:22:29.433Z,18.30
2018-04-23T05:24:57.726Z,18.20
2018-04-23T05:27:25.982Z,18.20
2018-04-23T05:29:54.257Z,18.30
2018-04-23T05:32:22.544Z,18.30
2018-04-23T05:34:50.853Z,18.30
2018-04-23T05:37:18.394Z,18.30
2018-04-23T05:39:45.931Z,18.40
2018-04-23T05:42:13.437Z,18.40
2018-04-23T05:44:40.961Z,18.50
2018-04-23T05:47:09.250Z,18.50
2018-04-23T05:49:36.734Z,18.50
2018-04-23T05:52:04.243Z,18.50
2018-04-23T05:54:32.520Z,18.50
2018-04-23T05:57:00.815Z,18.40
2018-04-23T05:59:29.093Z,18.40
2018-04-23T06:01:56.610Z,18.40
2018-04-23T06:04:24.138Z,18.40
2018-04-23T06:06:51.662Z,18.40
2018-04-23T06:09:19.941Z,18.40
2018-04-23T06:11:47.430Z,18.40
2018-04-23T06:14:14.954Z,18.50
2018-04-23T06:16:43.210Z,18.60
2018-04-23T06:19:10.760Z,18.50
2018-04-23T06:21:38.249Z,18.70
2018-04-23T06:24:05.764Z,18.70
2018-04-23T06:26:33.284Z,18.60
2018-04-23T06:29:00.796Z,18.70
2018-04-23T06:31:28.321Z,18.80
2018-04-23T06:33:55.813Z,18.70
2018-04-23T06:36:23.334Z,18.70
2018-04-23T06:38:50.837Z,18.60
2018-04-23T06:41:18.355Z,18.40
2018-04-23T06:43:45.858Z,18.20
2018-04-23T06:46:14.187Z,17.90
2018-04-23T06:48:41.716Z,17.80
2018-04-23T06:51:09.278Z,17.90
2018-04-23T06:53:36.803Z,17.70
2018-04-23T06:56:04.306Z,17.50
2018-04-23T06:58:31.836Z,17.50
2018-04-23T07:01:00.101Z,17.20
2018-04-23T07:03:27.649Z,17.20
2018-04-23T07:05:55.153Z,17.10
2018-04-23T07:08:22.691Z,17.20
2018-04-23T07:10:50.218Z,17.00
2018-04-23T07:13:17.779Z,16.80
2018-04-23T07:15:45.338Z,16.80
2018-04-23T07:18:12.849Z,16.80
2018-04-23T07:20:40.391Z,16.80
2018-04-23T07:23:08.710Z,16.70
2018-04-23T07:25:36.219Z,16.70
2018-04-23T07:28:04.530Z,16.70
2018-04-23T07:30:32.052Z,16.80
2018-04-23T07:33:00.350Z,16.90
2018-04-23T07:35:27.889Z,16.80
2018-04-23T07:37:56.165Z,16.90
2018-04-23T07:40:24.482Z,16.80
2018-04-23T07:42:52.004Z,16.80
2018-04-23T07:45:20.283Z,16.90
2018-04-23T07:47:47.821Z,16.90
2018-04-23T07:50:15.353Z,16.90
2018-04-23T07:52:42.852Z,16.80
2018-04-23T07:55:11.168Z,16.70
2018-04-23T07:57:38.673Z,16.70
2018-04-23T08:00:06.273Z,16.70
2018-04-23T08:02:33.776Z,16.60
2018-04-23T08:05:01.347Z,16.60
2018-04-23T08:07:28.876Z,16.60
2018-04-23T08:09:56.391Z,16.60
2018-04-23T08:12:24.711Z,16.50
2018-04-23T08:14:52.237Z,16.50
2018-04-23T08:17:19.749Z,16.50
2018-04-23T08:19:47.306Z,16.60
2018-04-23T08:22:14.844Z,16.70
2018-04-23T08:24:42.375Z,16.80
2018-04-23T08:27:09.929Z,17.00
2018-04-23T08:29:38.212Z,17.20
2018-04-23T08:32:05.714Z,17.20
2018-04-23T08:34:33.241Z,17.30
2018-04-23T08:37:01.539Z,17.50
2018-04-23T08:39:29.081Z,17.40
2018-04-23T08:41:56.585Z,17.60
2018-04-23T08:44:24.124Z,17.50
2018-04-23T08:46:51.626Z,17.60
2018-04-23T08:49:19.912Z,17.80
2018-04-23T08:51:48.216Z,17.90
2018-04-23T08:54:15.759Z,17.90
2018-04-23T08:56:43.265Z,18.10
2018-04-23T08:59:10.774Z,18.10
2018-04-23T09:01:38.300Z,18.10
2018-04-23T09:04:05.804Z,18.10
2018-04-23T09:06:33.337Z,18.10
2018-04-23T09:09:01.665Z,17.90
2018-04-23T09:11:29.195Z,17.90
2018-04-23T09:13:56.741Z,17.80
2018-04-23T09:16:24.270Z,17.70
2018-04-23T09:18:51.761Z,17.90
2018-04-23T09:21:19.278Z,18.00
2018-04-23T09:23:46.776Z,18.10
2018-04-23T09:26:14.325Z,18.10
2018-04-23T09:28:42.594Z,18.30
2018-04-23T09:31:10.885Z,18.60
2018-04-23T09:33:39.176Z,18.70
2018-04-23T09:36:06.690Z,18.70
2018-04-23T09:38:34.212Z,18.90
2018-04-23T09:41:01.743Z,19.00
2018-04-23T09:43:29.287Z,19.40
2018-04-23T09:45:57.574Z,19.50
2018-04-23T09:48:25.121Z,19.50
2018-04-23T09:50:53.450Z,19.60
2018-04-23T09:53:21.467Z,19.60
2018-04-23T09:55:49.741Z,19.50
2018-04-23T09:58:18.940Z,19.60
2018-04-23T10:00:47.233Z,19.60
2018-04-23T10:03:15.528Z,19.60
2018-04-23T10:05:43.061Z,19.60
2018-04-23T10:08:11.341Z,19.80
2018-04-23T10:10:38.985Z,19.80
2018-04-23T10:13:07.269Z,19.80
2018-04-23T10:15:35.589Z,19.80
2018-04-23T10:18:03.082Z,19.70
2018-04-23T10:20:30.659Z,20.10
2018-04-23T10:22:59.143Z,20.30
2018-04-23T10:25:27.423Z,20.30
2018-04-23T10:27:55.725Z,20.50
2018-04-23T10:30:23.333Z,20.50
2018-04-23T10:32:50.917Z,20.50
2018-04-23T10:35:19.435Z,20.40
2018-04-23T10:37:47.899Z,20.40
2018-04-23T10:40:15.441Z,20.40
2018-04-23T10:42:43.742Z,20.20
2018-04-23T10:45:11.264Z,20.20
2018-04-23T10:47:39.656Z,20.00
2018-04-23T10:50:07.949Z,20.00
2018-04-23T10:52:35.455Z,20.00
2018-04-23T10:55:02.991Z,19.80
2018-04-23T10:57:30.828Z,19.70
2018-04-23T11:00:00.079Z,19.60
2018-04-23T11:02:27.712Z,19.50
2018-04-23T11:04:56.030Z,19.40
2018-04-23T11:07:23.604Z,19.40
2018-04-23T11:09:51.106Z,19.50
2018-04-23T11:12:18.633Z,19.60
2018-04-23T11:14:46.920Z,19.70
2018-04-23T11:17:14.454Z,19.60
2018-04-23T11:19:42.769Z,19.70
2018-04-23T11:22:10.279Z,19.60
2018-04-23T11:24:37.801Z,19.70
2018-04-23T11:27:05.341Z,19.70
2018-04-23T11:29:32.921Z,19.80
2018-04-23T11:32:00.446Z,19.90
2018-04-23T11:34:28.000Z,20.00
2018-04-23T11:36:56.267Z,20.30
2018-04-23T11:39:24.589Z,20.10
2018-04-23T11:41:52.139Z,20.10
2018-04-23T11:44:19.685Z,20.20
2018-04-23T11:46:47.276Z,20.10
2018-04-23T11:49:14.786Z,20.20
2018-04-23T11:51:43.105Z,20.50
2018-04-23T11:54:10.648Z,20.40
2018-04-23T11:56:38.201Z,20.50
2018-04-23T11:59:05.687Z,20.50
2018-04-23T12:01:33.242Z,20.60
2018-04-23T12:04:00.766Z,20.40
2018-04-23T12:06:29.071Z,20.50
2018-04-23T12:08:56.590Z,20.50
2018-04-23T12:11:24.876Z,20.90
2018-04-23T12:13:53.181Z,20.90
2018-04-23T12:16:20.696Z,20.90
2018-04-23T12:18:48.222Z,20.90
2018-04-23T12:21:15.773Z,20.90
2018-04-23T12:23:43.291Z,20.90
2018-04-23T12:26:11.559Z,21.50
2018-04-23T12:28:39.920Z,22.30
2018-04-23T12:31:07.433Z,22.20
2018-04-23T12:33:34.939Z,22.60
2018-04-23T12:36:02.486Z,22.70
2018-04-23T12:38:30.020Z,23.20
2018-04-23T12:40:57.540Z,23.20
2018-04-23T12:43:25.119Z,23.20
2018-04-23T12:45:52.675Z,23.50
2018-04-23T12:48:20.196Z,24.00
2018-04-23T12:50:47.733Z,24.30
2018-04-23T12:53:15.296Z,24.20
2018-04-23T12:55:42.785Z,24.10
2018-04-23T12:58:11.120Z,24.30
2018-04-23T13:00:38.637Z,24.30
2018-04-23T13:03:06.179Z,24.70
2018-04-23T13:05:33.686Z,24.90
2018-04-23T13:08:01.241Z,25.00
2018-04-23T13:10:28.749Z,24.50
2018-04-23T13:12:57.020Z,25.20
2018-04-23T13:15:24.530Z,25.10
2018-04-23T13:17:52.026Z,25.30
2018-04-23T13:20:19.578Z,24.80
2018-04-23T13:22:47.166Z,24.50
2018-04-23T13:25:15.486Z,24.50
2018-04-23T13:27:43.070Z,24.50
2018-04-23T13:30:10.597Z,24.60
2018-04-23T13:32:38.134Z,24.70
2018-04-23T13:35:06.436Z,24.70
2018-04-23T13:37:33.944Z,24.60
2018-04-23T13:40:01.459Z,24.60
2018-04-23T13:42:29.009Z,24.70
2018-04-23T13:44:56.553Z,24.20
2018-04-23T13:47:24.102Z,24.10
2018-04-23T13:49:52.361Z,23.60
2018-04-23T13:52:20.665Z,23.30
2018-04-23T13:54:48.927Z,23.20
2018-04-23T13:57:17.242Z,23.00
2018-04-23T13:59:44.762Z,23.00
2018-04-23T14:02:13.089Z,22.70
2018-04-23T14:04:40.632Z,22.70
2018-04-23T14:07:08.163Z,22.80
2018-04-23T14:09:36.498Z,23.20
2018-04-23T14:12:04.008Z,23.20
2018-04-23T14:14:31.553Z,23.60
2018-04-23T14:16:59.838Z,23.40
2018-04-23T14:19:28.140Z,23.60
2018-04-23T14:21:55.683Z,23.60
2018-04-23T14:24:23.205Z,23.60
2018-04-23T14:26:50.720Z,23.80
2018-04-23T14:29:18.240Z,23.70
2018-04-23T14:31:46.525Z,23.20
2018-04-23T14:34:14.797Z,23.20
2018-04-23T14:36:43.134Z,23.30
2018-04-23T14:39:10.642Z,23.20
2018-04-23T14:41:38.925Z,23.20
2018-04-23T14:44:06.432Z,23.20
2018-04-23T14:46:33.932Z,23.30
2018-04-23T14:49:01.491Z,23.40
2018-04-23T14:51:29.034Z,23.70
2018-04-23T14:53:57.377Z,23.70
2018-04-23T14:56:24.896Z,23.70
2018-04-23T14:58:53.206Z,23.40
2018-04-23T15:01:20.733Z,23.40
2018-04-23T15:03:48.268Z,23.30
2018-04-23T15:06:16.557Z,22.70
2018-04-23T15:08:44.836Z,22.40
2018-04-23T15:11:12.341Z,22.40
2018-04-23T15:13:39.873Z,22.30
2018-04-23T15:16:07.390Z,21.80
2018-04-23T15:18:35.689Z,21.70
2018-04-23T15:21:04.007Z,21.50
2018-04-23T15:23:31.508Z,21.50
2018-04-23T15:25:59.059Z,21.50
2018-04-23T15:28:26.552Z,21.40
2018-04-23T15:30:54.103Z,21.40
2018-04-23T15:33:22.373Z,21.20
2018-04-23T15:35:50.664Z,21.30
2018-04-23T15:38:18.228Z,21.20
2018-04-23T15:40:45.744Z,21.40
2018-04-23T15:43:13.300Z,21.50
2018-04-23T15:45:40.829Z,21.50
2018-04-23T15:48:08.353Z,21.50
2018-04-23T15:50:35.893Z,21.30
2018-04-23T15:53:04.174Z,20.80
2018-04-23T15:55:33.103Z,20.60
2018-04-23T15:58:00.634Z,20.60
2018-04-23T16:00:28.937Z,20.40
2018-04-23T16:02:56.444Z,20.30
2018-04-23T16:05:24.755Z,20.40
2018-04-23T16:07:52.285Z,20.40
2018-04-23T16:10:20.566Z,20.20
2018-04-23T16:12:48.880Z,20.10
2018-04-23T16:15:16.416Z,20.10
2018-04-23T16:17:43.929Z,20.00
2018-04-23T16:20:11.462Z,19.70
2018-04-23T16:22:38.997Z,19.70
2018-04-23T16:25:07.293Z,19.60
2018-04-23T16:27:34.867Z,19.60
2018-04-23T16:30:02.432Z,19.60
2018-04-23T16:32:30.708Z,19.50
2018-04-23T16:34:58.246Z,19.50
2018-04-23T16:37:25.810Z,19.50
2018-04-23T16:39:53.315Z,19.50
2018-04-23T16:42:21.647Z,19.40
2018-04-23T16:44:50.545Z,19.40
2018-04-23T16:47:18.251Z,19.50
2018-04-23T16:49:45.787Z,19.50
2018-04-23T16:52:13.289Z,19.40
2018-04-23T16:54:41.591Z,19.20
2018-04-23T16:57:09.130Z,19.20
2018-04-23T16:59:37.390Z,19.10
2018-04-23T17:02:05.702Z,19.20
2018-04-23T17:04:33.241Z,19.10
2018-04-23T17:07:01.534Z,18.90
2018-04-23T17:09:29.050Z,18.90
2018-04-23T17:11:56.629Z,18.90
2018-04-23T17:14:24.913Z,18.80
2018-04-23T17:16:53.206Z,18.80
2018-04-23T17:19:20.775Z,18.80
2018-04-23T17:21:48.287Z,18.80
2018-04-23T17:24:16.594Z,18.60
2018-04-23T17:26:44.105Z,18.60
2018-04-23T17:29:11.621Z,18.70
2018-04-23T17:31:39.169Z,18.70
2018-04-23T17:34:06.677Z,18.70
2018-04-23T17:36:34.298Z,18.60
2018-04-23T17:39:02.553Z,18.60
2018-04-23T17:41:30.866Z,18.70
2018-04-23T17:43:58.389Z,18.60
2018-04-23T17:46:26.714Z,18.50
2018-04-23T17:48:54.227Z,18.50
2018-04-23T17:51:22.515Z,18.50
2018-04-23T17:53:50.028Z,18.40
2018-04-23T17:56:17.606Z,18.40
2018-04-23T17:58:45.948Z,18.20
2018-04-23T18:01:13.502Z,18.20
2018-04-23T18:03:41.030Z,18.30
2018-04-23T18:06:08.714Z,18.20
2018-04-23T18:08:36.281Z,18.20
2018-04-23T18:11:03.812Z,18.20
2018-04-23T18:13:31.377Z,18.20
2018-04-23T18:15:59.027Z,18.10
2018-04-23T18:18:26.605Z,18.00
2018-04-23T18:20:54.147Z,17.80
2018-04-23T18:23:22.433Z,17.80
2018-04-23T18:25:49.994Z,17.80
2018-04-23T18:28:17.542Z,17.70
2018-04-23T18:30:45.110Z,17.50
2018-04-23T18:33:12.621Z,17.50
2018-04-23T18:35:40.146Z,17.50
2018-04-23T18:38:07.685Z,17.40
2018-04-23T18:40:35.195Z,17.20
2018-04-23T18:43:02.964Z,17.10
2018-04-23T18:45:31.457Z,17.20
2018-04-23T18:47:59.820Z,17.10
2018-04-23T18:50:27.332Z,17.10
2018-04-23T18:52:54.857Z,17.00
2018-04-23T18:55:23.287Z,16.90
2018-04-23T18:57:50.868Z,16.80
2018-04-23T19:00:18.497Z,16.80
2018-04-23T19:02:46.140Z,16.80
2018-04-23T19:05:13.692Z,16.70
2018-04-23T19:07:41.208Z,16.60
2018-04-23T19:10:08.823Z,16.60
2018-04-23T19:12:36.642Z,16.60
2018-04-23T19:15:04.967Z,16.50
2018-04-23T19:17:32.498Z,16.50
2018-04-23T19:20:00.028Z,16.60
2018-04-23T19:22:27.643Z,16.50
2018-04-23T19:24:55.216Z,16.40
2018-04-23T19:27:22.802Z,16.50
2018-04-23T19:29:51.090Z,16.40
2018-04-23T19:32:18.728Z,16.40
2018-04-23T19:34:46.285Z,16.40
2018-04-23T19:37:13.853Z,16.30
2018-04-23T19:39:41.469Z,16.40
2018-04-23T19:42:09.809Z,16.40
2018-04-23T19:44:37.361Z,16.40
2018-04-23T19:47:04.961Z,16.30
2018-04-23T19:49:33.329Z,16.30
2018-04-23T19:52:00.878Z,16.30
2018-04-23T19:54:28.637Z,16.30
2018-04-23T19:56:56.212Z,16.30
2018-04-23T19:59:23.819Z,16.30
2018-04-23T20:01:51.459Z,16.30
2018-04-23T20:04:19.272Z,16.30
2018-04-23T20:06:46.903Z,16.30
2018-04-23T20:09:14.459Z,16.30
2018-04-23T20:11:42.050Z,16.40
2018-04-23T20:14:09.749Z,16.30
2018-04-23T20:16:38.048Z,16.30
2018-04-23T20:19:05.703Z,16.30
2018-04-23T20:21:34.032Z,16.40
2018-04-23T20:24:01.649Z,16.30
2018-04-23T20:26:29.219Z,16.30
2018-04-23T20:28:56.746Z,16.20
2018-04-23T20:31:25.158Z,16.20
2018-04-23T20:33:52.943Z,16.20
2018-04-23T20:36:20.579Z,16.20
2018-04-23T20:38:48.154Z,16.20
2018-04-23T20:41:15.840Z,16.20
2018-04-23T20:43:43.477Z,16.20
2018-04-23T20:46:11.007Z,16.10
2018-04-23T20:48:38.538Z,16.00
2018-04-23T20:51:06.107Z,16.00
2018-04-23T20:53:33.628Z,16.00
2018-04-23T20:56:01.145Z,16.00
2018-04-23T20:58:28.685Z,15.90
2018-04-23T21:00:56.987Z,15.90
2018-04-23T21:03:24.521Z,15.90
2018-04-23T21:05:52.842Z,16.00
2018-04-23T21:08:20.413Z,16.00
2018-04-23T21:10:47.963Z,15.90
2018-04-23T21:13:15.546Z,15.90
2018-04-23T21:15:43.068Z,15.90
2018-04-23T21:18:10.605Z,15.90
2018-04-23T21:20:38.906Z,15.90
2018-04-23T21:23:06.433Z,15.90
2018-04-23T21:25:33.960Z,15.80
2018-04-23T21:28:01.482Z,15.80
2018-04-23T21:30:28.996Z,15.80
2018-04-23T21:32:56.539Z,15.70
2018-04-23T21:35:24.097Z,15.70
2018-04-23T21:37:51.609Z,15.70
2018-04-23T21:40:19.144Z,15.70
2018-04-23T21:42:47.434Z,15.80
2018-04-23T21:45:14.986Z,15.70
2018-04-23T21:47:43.288Z,15.70
2018-04-23T21:50:10.825Z,15.70
2018-04-23T21:52:38.395Z,15.60
2018-04-23T21:55:06.671Z,15.50
2018-04-23T21:57:34.977Z,15.50
2018-04-23T22:00:02.507Z,15.60
2018-04-23T22:02:30.052Z,15.70
2018-04-23T22:04:58.331Z,15.60
2018-04-23T22:07:26.649Z,15.70
2018-04-23T22:09:54.153Z,15.70
2018-04-23T22:12:21.663Z,15.60
2018-04-23T22:14:49.217Z,15.50
2018-04-23T22:17:16.733Z,15.60
2018-04-23T22:19:44.253Z,15.50
2018-04-23T22:22:11.782Z,15.50
2018-04-23T22:24:39.338Z,15.60
2018-04-23T22:27:06.854Z,15.50
2018-04-23T22:29:34.393Z,15.60
2018-04-23T22:32:01.912Z,15.50
2018-04-23T22:34:29.453Z,15.40
2018-04-23T22:36:57.800Z,15.40
2018-04-23T22:39:25.321Z,15.40
2018-04-23T22:41:52.872Z,15.40
2018-04-23T22:44:20.394Z,15.40
2018-04-23T22:46:47.961Z,15.50
2018-04-23T22:49:16.246Z,15.40
2018-04-23T22:51:44.582Z,15.40
2018-04-23T22:54:12.839Z,15.30
2018-04-23T22:56:40.363Z,15.30
2018-04-23T22:59:08.645Z,15.40
2018-04-23T23:01:36.191Z,15.40
2018-04-23T23:04:04.518Z,15.30
2018-04-23T23:06:32.025Z,15.30
2018-04-23T23:09:00.330Z,15.30
2018-04-23T23:11:27.926Z,15.30
2018-04-23T23:13:55.467Z,15.20
2018-04-23T23:16:23.002Z,15.20
2018-04-23T23:18:50.560Z,15.20
2018-04-23T23:21:18.919Z,15.20
2018-04-23T23:23:46.437Z,15.20
2018-04-23T23:26:13.954Z,15.20
2018-04-23T23:28:42.270Z,15.20
2018-04-23T23:31:09.810Z,15.10
2018-04-23T23:33:37.310Z,15.20
2018-04-23T23:36:04.867Z,15.20
2018-04-23T23:38:32.481Z,15.20
2018-04-23T23:41:00.765Z,15.20
2018-04-23T23:43:28.294Z,15.20
2018-04-23T23:45:55.881Z,15.10
2018-04-23T23:48:23.457Z,15.20
2018-04-23T23:50:50.961Z,15.10
2018-04-23T23:53:18.484Z,15.20
2018-04-23T23:55:46.030Z,15.20
2018-04-23T23:58:13.564Z,15.20
